Time;durP1;ratioP1;P1;durP2;ratioP2;P2;SDS_P1;SDS_P2;PMS_P1;PMS_P2;Temp;Humidity;BMP_temperature;BMP_pressure;BME280_temperature;BME280_humidity;BME280_pressure;Samples;Min_cycle;Max_cycle;Signal;HPM_P1;HPM_P2
2022/05/18 00:01:04;;;;;;;2.70;2.20;;;;;;;19.08;59.60;100226.78;4362457;32;34197;-85
2022/05/18 00:03:36;;;;;;;1.75;1.65;;;;;;;19.04;59.98;100230.69;4366761;32;33107;-84
2022/05/18 00:06:05;;;;;;;2.50;1.97;;;;;;;19.02;60.11;100227.25;4374675;32;33534;-84
2022/05/18 00:08:36;;;;;;;4.47;1.98;;;;;;;19.08;60.02;100224.97;4353609;32;33068;-84
2022/05/18 00:11:08;;;;;;;8.52;2.08;;;;;;;19.11;59.94;100232.78;4370479;32;33931;-85
2022/05/18 00:13:37;;;;;;;3.55;2.85;;;;;;;19.19;59.91;100234.91;4363241;32;33873;-84
2022/05/18 00:16:07;;;;;;;2.55;2.10;;;;;;;19.07;60.33;100238.47;4375122;32;33101;-85
2022/05/18 00:18:35;;;;;;;3.85;2.05;;;;;;;19.23;59.83;100230.16;4353429;32;33459;-84
2022/05/18 00:21:04;;;;;;;4.05;2.05;;;;;;;19.19;59.56;100241.13;4366852;32;32721;-83
2022/05/18 00:23:33;;;;;;;2.70;2.15;;;;;;;19.28;58.67;100241.44;4362332;32;32887;-84
2022/05/18 00:26:02;;;;;;;5.07;2.30;;;;;;;19.24;58.27;100243.47;4375211;32;34456;-84
2022/05/18 00:28:31;;;;;;;2.12;1.80;;;;;;;18.92;59.21;100240.44;4362714;32;32864;-84
2022/05/18 00:31:00;;;;;;;5.45;2.20;;;;;;;19.22;58.50;100239.19;4374516;32;34794;-84
2022/05/18 00:33:29;;;;;;;2.95;1.87;;;;;;;19.15;58.02;100234.28;4350245;32;32269;-85
2022/05/18 00:35:57;;;;;;;3.00;2.10;;;;;;;19.07;58.10;100235.78;4368534;32;33896;-85
2022/05/18 00:38:25;;;;;;;3.53;1.85;;;;;;;19.22;55.88;100244.53;4374876;32;34424;-85
2022/05/18 00:40:53;;;;;;;3.22;1.85;;;;;;;19.08;55.87;100242.84;4362591;32;33416;-83
2022/05/18 00:43:31;;;;;;;3.87;1.60;;;;;;;19.12;56.58;100247.88;4374511;32;34036;-83
2022/05/18 00:46:01;;;;;;;3.90;1.90;;;;;;;19.20;56.26;100247.34;4375153;32;33078;-83
2022/05/18 00:48:29;;;;;;;2.00;1.58;;;;;;;19.27;55.99;100243.22;4362697;32;33710;-84
2022/05/18 00:50:59;;;;;;;3.55;1.85;;;;;;;18.99;55.74;100249.75;4362233;32;34076;-84
2022/05/18 00:53:42;;;;;;;6.25;2.30;;;;;;;19.14;55.09;100248.62;4349638;32;34171;-87
2022/05/18 00:56:23;;;;;;;2.85;2.15;;;;;;;18.89;55.07;100256.69;4362415;32;33206;-86
2022/05/18 00:58:58;;;;;;;4.60;1.62;;;;;;;18.92;55.58;100253.81;4374659;32;34030;-87
2022/05/18 01:01:26;;;;;;;3.75;1.80;;;;;;;18.76;54.68;100258.53;4367067;32;33062;-87
2022/05/18 01:03:55;;;;;;;2.92;2.10;;;;;;;18.79;54.28;100258.31;4350304;32;33776;-84
2022/05/18 01:06:28;;;;;;;4.00;1.70;;;;;;;18.85;53.90;100264.09;4361052;32;34083;-84
2022/05/18 01:09:05;;;;;;;2.37;1.60;;;;;;;18.87;53.47;100261.31;4374521;32;33622;-83
2022/05/18 01:11:35;;;;;;;2.45;1.90;;;;;;;18.79;53.42;100264.50;4368669;32;34378;-83
2022/05/18 01:14:25;;;;;;;2.87;2.00;;;;;;;18.89;51.58;100264.72;4349630;32;33707;-84
2022/05/18 01:16:53;;;;;;;3.67;1.37;;;;;;;19.08;50.69;100275.81;4361964;32;33644;-84
2022/05/18 01:19:40;;;;;;;1.87;1.67;;;;;;;19.09;49.97;100276.69;4351608;32;32990;-84
2022/05/18 01:22:55;;;;;;;4.35;2.20;;;;;;;19.25;49.14;100281.81;4376895;32;34431;-84
2022/05/18 01:25:50;;;;;;;2.92;1.27;;;;;;;18.88;51.30;100279.06;4346842;32;34859;-84
2022/05/18 01:28:20;;;;;;;1.95;1.80;;;;;;;19.13;49.93;100281.72;4375744;32;33484;-83
2022/05/18 01:30:48;;;;;;;2.87;1.92;;;;;;;18.99;50.56;100286.31;4376661;32;33748;-84
2022/05/18 01:33:19;;;;;;;2.87;1.45;;;;;;;18.89;51.46;100288.78;4363266;32;33790;-84
2022/05/18 01:35:48;;;;;;;2.50;1.30;;;;;;;18.83;52.30;100289.25;4364219;32;34279;-84
2022/05/18 01:38:17;;;;;;;3.20;1.80;;;;;;;18.62;51.90;100297.78;4364041;32;33267;-83
2022/05/18 01:40:58;;;;;;;3.35;1.67;;;;;;;18.89;51.75;100292.31;4364840;32;33713;-83
2022/05/18 01:43:34;;;;;;;2.62;1.70;;;;;;;18.73;52.18;100291.69;4350405;32;33055;-82
2022/05/18 01:46:06;;;;;;;2.67;1.80;;;;;;;18.77;52.32;100303.06;4375808;32;33257;-83
2022/05/18 01:48:38;;;;;;;8.82;1.50;;;;;;;18.68;52.27;100292.03;4351775;32;33648;-83
2022/05/18 01:51:06;;;;;;;4.90;1.70;;;;;;;18.51;52.65;100292.28;4369447;32;35211;-84
2022/05/18 01:53:36;;;;;;;1.92;1.20;;;;;;;18.65;52.43;100294.87;4351647;32;32057;-84
2022/05/18 01:56:04;;;;;;;2.12;1.52;;;;;;;18.53;52.24;100301.06;4370208;32;35410;-85
2022/05/18 01:58:32;;;;;;;3.12;1.48;;;;;;;18.55;52.87;100303.62;4363706;32;34320;-85
2022/05/18 02:01:02;;;;;;;2.20;1.40;;;;;;;18.54;53.01;100305.47;4369247;32;34509;-85
2022/05/18 02:03:31;;;;;;;4.12;1.73;;;;;;;18.63;52.88;100306.66;4351593;32;32334;-85
2022/05/18 02:05:59;;;;;;;4.30;1.77;;;;;;;18.54;53.48;100313.47;4363061;32;33299;-85
2022/05/18 02:08:27;;;;;;;2.47;1.42;;;;;;;18.43;53.87;100316.91;4375236;32;32836;-85
2022/05/18 02:10:55;;;;;;;2.55;1.58;;;;;;;18.57;53.42;100315.97;4363906;32;33666;-84
2022/05/18 02:13:23;;;;;;;3.03;1.35;;;;;;;18.20;54.90;100330.97;4363702;32;33540;-84
2022/05/18 02:15:51;;;;;;;4.28;1.55;;;;;;;18.35;54.51;100334.41;4364018;32;33329;-86
2022/05/18 02:18:19;;;;;;;2.17;1.60;;;;;;;18.35;54.40;100340.62;4363620;32;32916;-85
2022/05/18 02:20:47;;;;;;;3.15;1.80;;;;;;;18.27;55.18;100336.75;4375235;32;34093;-85
2022/05/18 02:23:14;;;;;;;7.78;1.77;;;;;;;18.35;54.87;100334.41;4358174;32;33804;-85
2022/05/18 02:25:42;;;;;;;1.62;1.40;;;;;;;18.17;54.64;100345.37;4378866;32;33567;-85
2022/05/18 02:28:10;;;;;;;2.75;2.00;;;;;;;18.17;54.37;100352.53;4357679;32;33875;-85
2022/05/18 02:30:38;;;;;;;2.12;1.87;;;;;;;18.02;54.48;100354.41;4375017;32;33805;-85
2022/05/18 02:33:08;;;;;;;3.30;2.42;;;;;;;18.07;54.33;100365.66;4363687;32;33333;-84
2022/05/18 02:35:40;;;;;;;2.47;1.80;;;;;;;17.93;54.49;100365.69;4358592;32;33271;-84
2022/05/18 02:38:09;;;;;;;3.03;1.65;;;;;;;17.86;54.74;100369.75;4379064;32;34193;-84
2022/05/18 02:40:37;;;;;;;3.15;2.17;;;;;;;17.87;55.05;100366.09;4375955;32;34993;-84
2022/05/18 02:43:08;;;;;;;4.60;2.63;;;;;;;17.52;56.37;100366.53;4363551;32;33862;-83
2022/05/18 02:45:37;;;;;;;3.55;2.00;;;;;;;17.59;56.21;100372.31;4369571;32;32895;-84
2022/05/18 02:48:05;;;;;;;5.07;2.00;;;;;;;17.58;56.43;100376.81;4362342;32;33622;-84
2022/05/18 02:50:34;;;;;;;2.03;1.58;;;;;;;17.55;56.75;100378.81;4355290;32;32981;-84
2022/05/18 02:53:02;;;;;;;3.45;2.05;;;;;;;17.42;56.94;100376.06;4347970;32;34207;-84
2022/05/18 02:58:16;;;;;;;2.92;1.70;;;;;;;17.26;57.34;100385.97;4361238;32;34657;-84
2022/05/18 03:00:45;;;;;;;4.93;2.08;;;;;;;17.19;57.58;100395.34;4350058;32;33691;-84
2022/05/18 03:03:13;;;;;;;2.70;1.65;;;;;;;17.15;58.13;100395.50;4347298;32;34402;-84
2022/05/18 03:05:42;;;;;;;3.47;2.25;;;;;;;16.99;58.66;100397.38;4363268;32;34223;-84
2022/05/18 03:08:09;;;;;;;2.22;1.52;;;;;;;17.01;58.79;100400.84;4348172;32;34290;-85
2022/05/18 03:10:37;;;;;;;3.10;1.60;;;;;;;16.95;58.81;100403.00;4361072;32;34330;-84
2022/05/18 03:13:06;;;;;;;4.28;2.10;;;;;;;16.84;59.16;100406.31;4347763;32;34761;-84
2022/05/18 03:15:34;;;;;;;2.83;2.00;;;;;;;16.85;59.00;100411.59;4347482;32;35048;-84
2022/05/18 03:18:02;;;;;;;1.80;1.58;;;;;;;16.65;59.50;100418.03;4360421;32;33770;-84
2022/05/18 03:23:33;;;;;;;3.72;2.12;;;;;;;16.64;59.50;100421.66;4341972;32;33202;-83
2022/05/18 03:26:08;;;;;;;3.45;2.17;;;;;;;16.56;59.79;100429.25;4359448;32;32659;-83
2022/05/18 03:28:42;;;;;;;2.62;1.98;;;;;;;16.60;59.52;100436.13;4347409;32;33766;-84
2022/05/18 03:31:12;;;;;;;4.22;2.03;;;;;;;16.39;60.17;100448.91;4361065;32;34688;-83
2022/05/18 03:33:40;;;;;;;3.05;2.03;;;;;;;16.58;59.65;100443.38;4347444;32;34856;-83
2022/05/18 03:36:12;;;;;;;4.90;2.47;;;;;;;16.56;59.83;100453.25;4360224;32;34909;-83
2022/05/18 03:38:40;;;;;;;8.68;2.60;;;;;;;16.65;59.54;100455.38;4347381;32;33141;-83
2022/05/18 03:41:09;;;;;;;10.73;2.78;;;;;;;16.64;59.68;100461.66;4350300;32;34022;-83
2022/05/18 03:43:37;;;;;;;4.35;2.30;;;;;;;16.68;60.06;100469.50;4340192;32;33150;-85
2022/05/18 03:46:07;;;;;;;4.60;2.22;;;;;;;16.10;61.60;100474.53;4359199;32;34390;-83
2022/05/18 03:48:35;;;;;;;3.08;2.30;;;;;;;16.36;60.97;100480.19;4361746;32;34214;-85
2022/05/18 03:51:04;;;;;;;4.85;2.20;;;;;;;16.43;60.62;100473.59;4363112;32;33722;-83
2022/05/18 03:53:34;;;;;;;3.00;1.87;;;;;;;16.75;60.19;100482.41;4362954;32;34056;-83
2022/05/18 03:56:03;;;;;;;2.58;2.33;;;;;;;16.70;60.18;100489.78;4375304;32;33596;-83
2022/05/18 03:58:31;;;;;;;6.07;2.97;;;;;;;16.82;59.84;100493.59;4362699;32;34341;-82
2022/05/18 04:01:00;;;;;;;4.62;2.67;;;;;;;16.94;59.97;100494.66;4356531;32;33727;-82
2022/05/18 04:03:40;;;;;;;4.85;2.45;;;;;;;17.00;59.76;100499.66;4362405;32;34362;-82
2022/05/18 04:06:11;;;;;;;2.97;2.37;;;;;;;17.19;59.32;100496.75;4348984;32;32786;-83
2022/05/18 04:08:40;;;;;;;5.93;2.60;;;;;;;16.99;59.92;100496.09;4361528;32;36326;-84
2022/05/18 04:11:08;;;;;;;4.15;2.22;;;;;;;17.28;58.38;100501.50;4349121;32;33137;-85
2022/05/18 04:13:40;;;;;;;6.10;2.30;;;;;;;16.86;60.41;100506.66;4361379;32;34025;-85
2022/05/18 04:16:09;;;;;;;4.30;2.17;;;;;;;16.92;59.94;100510.75;4348841;32;33114;-85
2022/05/18 04:18:38;;;;;;;4.70;2.42;;;;;;;17.08;59.44;100514.22;4362155;32;34609;-85
2022/05/18 04:21:06;;;;;;;4.12;2.33;;;;;;;17.67;57.31;100514.25;4360871;32;34397;-85
2022/05/18 04:23:39;;;;;;;5.62;2.33;;;;;;;17.59;57.62;100517.38;4360876;32;35226;-85
2022/05/18 04:26:09;;;;;;;7.87;2.40;;;;;;;17.62;58.37;100533.22;4358033;32;33526;-83
2022/05/18 04:28:38;;;;;;;8.70;3.12;;;;;;;17.84;58.24;100526.56;4371700;32;34183;-84
2022/05/18 04:31:07;;;;;;;7.12;2.20;;;;;;;18.21;56.52;100535.81;4360237;32;33876;-84
2022/05/18 04:33:36;;;;;;;5.87;2.53;;;;;;;18.12;56.06;100536.38;4359625;32;34632;-85
2022/05/18 04:36:04;;;;;;;6.20;2.20;;;;;;;18.33;54.93;100539.53;4358459;32;34345;-84
2022/05/18 04:38:33;;;;;;;4.45;2.42;;;;;;;18.36;54.52;100542.84;4362824;32;34040;-85
2022/05/18 04:41:02;;;;;;;9.98;2.12;;;;;;;18.22;55.06;100544.69;4347602;32;33469;-84
2022/05/18 04:43:34;;;;;;;3.67;2.90;;;;;;;18.22;54.88;100555.37;4347296;32;33487;-84
2022/05/18 04:46:02;;;;;;;6.93;2.03;;;;;;;18.07;55.30;100555.37;4354028;32;32739;-82
2022/05/18 04:48:31;;;;;;;5.07;2.65;;;;;;;18.02;56.24;100556.63;4358599;32;33145;-82
2022/05/18 04:51:00;;;;;;;6.95;3.10;;;;;;;18.14;55.96;100559.41;4361286;32;33333;-82
2022/05/18 04:53:28;;;;;;;5.62;3.28;;;;;;;18.23;55.33;100565.09;4360679;32;33655;-84
2022/05/18 04:55:56;;;;;;;9.82;3.10;;;;;;;17.98;56.19;100568.47;4369435;32;33784;-84
2022/05/18 04:58:26;;;;;;;3.33;2.25;;;;;;;18.16;54.48;100570.84;4370740;32;32789;-85
2022/05/18 05:01:01;;;;;;;3.92;2.70;;;;;;;17.87;56.13;100585.16;4353203;32;33108;-85
2022/05/18 05:03:31;;;;;;;6.28;2.80;;;;;;;18.38;54.57;100585.53;4378989;32;34078;-84
2022/05/18 05:06:03;;;;;;;3.37;2.47;;;;;;;18.26;56.07;100586.31;4380260;32;32935;-84
2022/05/18 05:08:34;;;;;;;5.72;2.33;;;;;;;18.28;54.49;100589.75;4375104;32;32870;-85
2022/05/18 05:11:03;;;;;;;3.40;2.05;;;;;;;18.56;51.17;100604.88;4362431;32;33347;-85
2022/05/18 05:13:34;;;;;;;5.32;2.37;;;;;;;18.67;51.03;100605.94;4374097;32;33824;-84
2022/05/18 05:16:10;;;;;;;2.17;1.85;;;;;;;18.17;50.75;100607.31;4360445;32;33604;-84
2022/05/18 05:18:39;;;;;;;4.10;1.70;;;;;;;18.46;49.56;100607.28;4365015;32;33194;-85
2022/05/18 05:21:15;;;;;;;1.62;1.12;;;;;;;18.31;48.34;100616.28;4353513;32;33569;-85
2022/05/18 05:23:46;;;;;;;6.78;1.87;;;;;;;18.05;47.68;100621.44;4369204;32;34525;-84
2022/05/18 05:26:15;;;;;;;1.83;1.10;;;;;;;18.14;47.18;100626.22;4371110;32;31029;-85
2022/05/18 05:28:46;;;;;;;2.47;1.48;;;;;;;18.07;47.49;100632.03;4381301;32;33053;-85
2022/05/18 05:31:14;;;;;;;1.85;1.30;;;;;;;18.03;46.01;100634.03;4372044;32;33117;-84
2022/05/18 05:33:43;;;;;;;5.00;1.20;;;;;;;17.60;46.95;100646.41;4373048;32;34127;-83
2022/05/18 05:36:11;;;;;;;4.97;1.50;;;;;;;17.08;45.32;100655.66;4376459;32;34267;-84
2022/05/18 05:38:39;;;;;;;8.43;1.67;;;;;;;17.03;46.39;100656.88;4377357;32;33842;-84
2022/05/18 05:41:07;;;;;;;3.62;1.05;;;;;;;17.30;47.36;100665.09;4357580;32;33610;-84
2022/05/18 05:43:40;;;;;;;2.65;1.20;;;;;;;17.13;47.60;100668.72;4371852;32;34169;-84
2022/05/18 05:46:13;;;;;;;2.97;1.10;;;;;;;17.26;47.04;100672.41;4369848;32;33874;-84
2022/05/18 05:48:46;;;;;;;2.80;1.37;;;;;;;17.34;47.25;100672.84;4364973;32;34523;-84
2022/05/18 05:51:15;;;;;;;1.60;1.00;;;;;;;17.36;47.75;100686.09;4364791;32;34474;-84
2022/05/18 05:53:45;;;;;;;4.25;1.80;;;;;;;16.94;48.95;100700.91;4364367;32;34100;-84
2022/05/18 05:56:16;;;;;;;2.33;1.35;;;;;;;16.99;50.46;100698.84;4376085;32;33536;-85
2022/05/18 05:58:48;;;;;;;2.10;0.90;;;;;;;17.08;50.05;100709.00;4363388;32;34261;-84
2022/05/18 06:01:17;;;;;;;1.48;1.10;;;;;;;17.43;46.83;100703.50;4362698;32;32966;-84
2022/05/18 06:03:47;;;;;;;4.68;1.30;;;;;;;17.43;46.40;100714.19;4358560;32;33381;-84
2022/05/18 06:06:19;;;;;;;3.40;1.12;;;;;;;17.64;46.71;100712.91;4351032;32;32663;-84
2022/05/18 06:08:47;;;;;;;2.33;1.20;;;;;;;17.71;45.78;100720.56;4362364;32;32736;-85
2022/05/18 06:11:18;;;;;;;2.37;0.98;;;;;;;17.72;46.09;100724.97;4347518;32;33419;-84
2022/05/18 06:13:47;;;;;;;13.40;1.92;;;;;;;17.70;43.74;100727.72;4367846;32;32997;-84
2022/05/18 06:16:15;;;;;;;2.33;1.33;;;;;;;17.69;43.80;100741.16;4338313;32;32594;-84
2022/05/18 06:18:44;;;;;;;6.30;1.25;;;;;;;17.78;43.95;100732.66;4349520;32;33776;-84
2022/05/18 06:21:12;;;;;;;5.07;1.45;;;;;;;17.28;44.62;100747.06;4373932;32;34480;-84
2022/05/18 06:23:40;;;;;;;4.18;1.08;;;;;;;17.57;46.35;100745.44;4364118;32;34156;-86
2022/05/18 06:26:08;;;;;;;1.65;1.15;;;;;;;17.99;45.52;100743.88;4376451;32;32841;-85
2022/05/18 06:28:41;;;;;;;8.60;1.12;;;;;;;18.09;43.55;100745.94;4363777;32;33615;-85
2022/05/18 06:31:11;;;;;;;6.72;1.83;;;;;;;18.09;42.52;100751.28;4364381;32;33945;-85
2022/05/18 06:33:41;;;;;;;2.65;1.40;;;;;;;18.19;41.50;100751.56;4362879;32;34178;-85
2022/05/18 06:36:09;;;;;;;11.23;1.87;;;;;;;18.41;41.63;100751.97;4373253;32;33242;-85
2022/05/18 06:38:37;;;;;;;1.70;1.20;;;;;;;17.80;43.25;100760.13;4365593;32;34831;-85
2022/05/18 06:43:42;;;;;;;4.65;1.17;;;;;;;18.40;41.47;100771.66;4363412;32;33481;-85
2022/05/18 06:46:18;;;;;;;1.65;1.27;;;;;;;18.74;40.63;100777.62;4368493;32;32587;-85
2022/05/18 06:48:50;;;;;;;5.80;1.73;;;;;;;18.91;39.68;100777.44;4381843;32;33190;-84
2022/05/18 06:51:26;;;;;;;2.62;1.02;;;;;;;18.47;39.89;100788.19;4366600;32;33146;-85
2022/05/18 06:53:56;;;;;;;7.47;1.40;;;;;;;18.53;41.62;100790.50;4355855;32;33329;-85
2022/05/18 06:56:30;;;;;;;2.65;0.82;;;;;;;18.62;39.92;100786.41;4376574;32;33204;-85
2022/05/18 06:58:58;;;;;;;5.07;1.40;;;;;;;18.81;40.03;100796.84;4364234;32;33433;-85
2022/05/18 07:01:28;;;;;;;3.70;1.10;;;;;;;19.22;39.53;100798.72;4363664;32;33963;-85
2022/05/18 07:03:57;;;;;;;3.35;1.20;;;;;;;19.21;40.97;100805.03;4363141;32;34054;-85
2022/05/18 07:06:32;;;;;;;7.00;1.57;;;;;;;19.20;39.20;100804.19;4340779;32;33119;-84
2022/05/18 07:09:10;;;;;;;4.43;1.20;;;;;;;19.48;38.62;100807.78;4362220;32;32705;-85
2022/05/18 07:11:50;;;;;;;6.43;1.48;;;;;;;18.94;39.08;100819.19;4365295;32;33973;-85
2022/05/18 07:14:21;;;;;;;15.05;1.30;;;;;;;19.03;40.20;100821.31;4352225;32;34520;-85
2022/05/18 07:16:49;;;;;;;2.08;1.20;;;;;;;18.93;39.01;100823.69;4362220;32;33641;-85
2022/05/18 07:19:19;;;;;;;2.67;1.40;;;;;;;18.39;42.29;100838.59;4362282;32;33846;-85
2022/05/18 07:21:47;;;;;;;2.45;1.10;;;;;;;18.57;40.76;100837.50;4350689;32;33388;-85
2022/05/18 07:24:17;;;;;;;2.35;1.33;;;;;;;19.25;39.58;100833.34;4340931;32;32861;-84
2022/05/18 07:26:47;;;;;;;2.58;1.25;;;;;;;19.31;39.35;100832.94;4360347;32;33190;-83
2022/05/18 07:29:16;;;;;;;3.47;1.65;;;;;;;19.04;38.76;100841.78;4361927;32;33425;-83
2022/05/18 07:34:32;;;;;;;2.58;1.25;;;;;;;19.83;37.05;100834.97;4369619;32;32933;-82
2022/05/18 07:37:00;;;;;;;3.37;1.60;;;;;;;19.66;39.80;100838.78;4375536;32;33359;-83
2022/05/18 07:39:29;;;;;;;3.28;1.15;;;;;;;19.34;37.40;100838.13;4362488;32;34508;-84
2022/05/18 07:42:01;;;;;;;3.47;1.27;;;;;;;19.32;39.54;100838.22;4376212;32;33919;-83
2022/05/18 07:44:28;;;;;;;2.03;1.10;;;;;;;19.55;37.52;100852.81;4363171;32;34372;-84
2022/05/18 07:46:58;;;;;;;2.67;1.40;;;;;;;19.75;36.88;100848.00;4357276;32;33935;-83
2022/05/18 07:49:26;;;;;;;2.30;0.98;;;;;;;20.04;37.69;100844.28;4355843;32;33739;-82
2022/05/18 07:51:53;;;;;;;6.82;1.40;;;;;;;20.07;36.79;100854.78;4375574;32;33940;-82
2022/05/18 07:54:22;;;;;;;5.12;1.40;;;;;;;19.76;36.08;100855.09;4363582;32;33194;-83
2022/05/18 07:56:50;;;;;;;2.92;1.17;;;;;;;19.74;37.66;100857.00;4378763;32;33409;-83
2022/05/18 07:59:18;;;;;;;3.85;1.50;;;;;;;20.31;36.27;100862.16;4375570;32;34065;-82
2022/05/18 08:01:46;;;;;;;4.40;1.37;;;;;;;20.46;35.43;100866.47;4363370;32;34499;-83
2022/05/18 08:04:16;;;;;;;1.85;1.20;;;;;;;19.48;35.73;100867.56;4375198;32;33182;-83
2022/05/18 08:06:47;;;;;;;5.32;1.10;;;;;;;19.85;35.16;100866.09;4363849;32;34475;-83
2022/05/18 08:09:22;;;;;;;6.35;1.62;;;;;;;20.11;36.76;100874.22;4349338;32;33061;-83
2022/05/18 08:17:26;;;;;;;3.12;1.73;;;;;;;19.98;36.69;100879.53;4372670;32;33312;-83
2022/05/18 08:19:54;;;;;;;2.30;1.35;;;;;;;20.14;36.34;100885.63;4360161;32;35187;-83
2022/05/18 08:22:23;;;;;;;5.50;1.30;;;;;;;19.93;36.35;100892.38;4347442;32;32674;-82
2022/05/18 08:24:58;;;;;;;3.67;2.28;;;;;;;19.93;36.79;100898.59;4360958;32;34530;-83
2022/05/18 08:27:27;;;;;;;3.78;1.17;;;;;;;19.74;35.16;100899.88;4358994;32;34277;-83
2022/05/18 08:30:00;;;;;;;3.15;1.50;;;;;;;20.13;34.90;100899.97;4351498;32;32603;-83
2022/05/18 08:32:28;;;;;;;4.20;1.37;;;;;;;19.63;38.46;100909.47;4350734;32;32762;-82
2022/05/18 08:34:56;;;;;;;2.17;1.50;;;;;;;19.47;37.51;100907.84;4366116;32;33614;-85
2022/05/18 08:37:24;;;;;;;2.67;1.25;;;;;;;19.86;37.88;100905.31;4365529;32;33580;-87
2022/05/18 08:39:52;;;;;;;2.17;1.17;;;;;;;20.41;36.06;100917.78;4364479;32;33555;-87
2022/05/18 08:42:23;;;;;;;4.43;1.45;;;;;;;20.32;36.79;100912.16;4374119;32;34534;-86
2022/05/18 08:44:51;;;;;;;2.45;1.48;;;;;;;19.89;36.68;100914.97;4365742;32;32870;-87
2022/05/18 08:47:33;;;;;;;2.40;1.73;;;;;;;20.42;36.70;100911.44;4373867;32;33288;-85
2022/05/18 08:50:07;;;;;;;1.37;1.10;;;;;;;21.00;34.75;100909.31;4363831;32;33853;-85
2022/05/18 08:52:54;;;;;;;4.10;1.45;;;;;;;20.41;34.78;100917.78;4363639;32;33314;-85
2022/05/18 08:55:38;;;;;;;3.58;1.30;;;;;;;20.07;35.19;100919.13;4373753;32;34511;-85
2022/05/18 08:58:30;;;;;;;2.83;1.10;;;;;;;20.48;35.23;100917.41;4376166;32;33253;-84
2022/05/18 09:01:00;;;;;;;3.63;1.50;;;;;;;20.67;33.28;100917.88;4362097;32;34677;-85
2022/05/18 09:03:50;;;;;;;2.42;1.08;;;;;;;20.68;34.74;100920.44;4363277;32;34633;-85
2022/05/18 09:06:37;;;;;;;2.55;1.23;;;;;;;20.68;36.13;100916.91;4363016;32;33237;-85
2022/05/18 09:12:03;;;;;;;0.80;0.75;;;;;;;21.44;33.52;100922.31;4368998;32;33718;-85
2022/05/18 09:14:39;;;;;;;2.00;0.90;;;;;;;21.18;34.45;100926.84;4365148;32;34775;-86
2022/05/18 09:17:31;;;;;;;3.60;0.88;;;;;;;21.12;32.22;100927.25;4359400;32;33469;-84
2022/05/18 09:20:21;;;;;;;2.10;0.98;;;;;;;20.84;33.14;100925.63;4368892;32;32502;-84
2022/05/18 09:22:55;;;;;;;3.62;0.90;;;;;;;21.29;33.58;100927.91;4367689;32;33234;-85
2022/05/18 09:25:53;;;;;;;3.00;0.82;;;;;;;21.43;32.68;100927.81;4375014;32;33692;-84
2022/05/18 09:28:42;;;;;;;3.87;1.30;;;;;;;21.68;30.77;100927.75;4356690;32;33909;-84
2022/05/18 09:31:41;;;;;;;1.60;0.80;;;;;;;21.65;31.68;100922.63;4365358;32;33362;-84
2022/05/18 09:34:31;;;;;;;2.80;0.90;;;;;;;21.42;30.22;100929.66;4375107;32;33922;-84
2022/05/18 09:37:15;;;;;;;7.28;2.00;;;;;;;21.43;29.86;100942.09;4375929;32;34295;-85
2022/05/18 09:39:55;;;;;;;2.50;1.73;;;;;;;21.41;33.09;100930.62;4361795;32;33028;-84
2022/05/18 09:42:27;;;;;;;3.70;1.17;;;;;;;21.84;30.02;100929.34;4357789;32;33549;-84
2022/05/18 09:45:11;;;;;;;2.28;0.88;;;;;;;22.13;29.15;100938.00;4379270;32;31918;-85
2022/05/18 09:47:56;;;;;;;2.25;0.85;;;;;;;22.37;29.54;100928.09;4363218;32;34511;-84
2022/05/18 09:50:31;;;;;;;3.75;1.17;;;;;;;22.24;28.10;100941.59;4369014;32;34909;-84
2022/05/18 09:52:59;;;;;;;5.57;1.50;;;;;;;21.72;27.99;100940.03;4350433;32;32883;-84
2022/05/18 09:55:28;;;;;;;2.33;0.75;;;;;;;21.72;29.78;100942.72;4360687;32;34270;-84
2022/05/18 09:58:04;;;;;;;3.95;1.10;;;;;;;22.07;28.53;100939.25;4356550;32;34046;-84
2022/05/18 10:00:36;;;;;;;2.37;0.80;;;;;;;22.18;27.14;100934.00;4365082;32;34003;-85
2022/05/18 10:09:15;;;;;;;1.00;0.68;;;;;;;22.07;27.59;100941.09;4370300;32;34704;-84
2022/05/18 10:11:44;;;;;;;4.10;0.82;;;;;;;22.04;28.19;100949.41;4364223;32;33644;-84
2022/05/18 10:14:25;;;;;;;4.90;1.35;;;;;;;21.52;28.14;100948.66;4355521;32;32579;-84
2022/05/18 10:17:04;;;;;;;3.95;1.35;;;;;;;22.05;33.58;100946.59;4365845;32;31580;-88
2022/05/18 10:19:46;;;;;;;5.75;1.40;;;;;;;22.61;28.97;100938.00;4365322;32;33865;-87
2022/05/18 10:22:21;;;;;;;2.80;0.98;;;;;;;22.85;26.89;100932.56;4379100;32;34446;-87
2022/05/18 10:25:05;;;;;;;1.00;0.62;;;;;;;22.79;26.43;100930.31;4348864;32;33530;-87
2022/05/18 10:27:37;;;;;;;1.33;0.85;;;;;;;22.39;27.55;100934.22;4365063;32;32843;-87
2022/05/18 10:30:12;;;;;;;1.87;0.80;;;;;;;22.64;24.65;100927.81;4365236;32;34474;-87
2022/05/18 10:32:57;;;;;;;1.92;0.80;;;;;;;22.22;24.66;100942.72;4371653;32;34470;-87
2022/05/18 10:35:46;;;;;;;5.53;0.77;;;;;;;22.70;24.76;100932.75;4346990;32;33136;-87
2022/05/18 10:38:23;;;;;;;2.92;1.25;;;;;;;22.74;25.80;100928.87;4381525;32;33949;-87
2022/05/18 10:40:56;;;;;;;6.22;1.10;;;;;;;22.94;26.37;100918.41;4382190;32;33959;-87
2022/05/18 10:43:29;;;;;;;4.47;0.70;;;;;;;23.46;25.37;100919.69;4369595;32;34165;-87
2022/05/18 10:46:20;;;;;;;3.25;0.80;;;;;;;23.14;22.57;100919.56;4364276;32;33316;-87
2022/05/18 10:49:00;;;;;;;3.40;0.93;;;;;;;22.73;22.83;100916.34;4375240;32;33282;-86
2022/05/18 10:51:46;;;;;;;0.77;0.70;;;;;;;22.84;22.90;100922.78;4367960;32;33816;-86
2022/05/18 10:54:23;;;;;;;;;;;;;;;22.66;22.94;100925.91;4350759;32;33145;-87
2022/05/18 10:56:54;;;;;;;3.40;0.70;;;;;;;22.85;22.81;100919.09;4342762;32;33484;-86
2022/05/18 10:59:36;;;;;;;0.90;0.62;;;;;;;23.18;21.51;100918.34;4357990;32;33925;-87
2022/05/18 11:02:33;;;;;;;4.65;0.70;;;;;;;22.73;25.32;100926.28;4348048;32;33044;-86
2022/05/18 11:05:21;;;;;;;1.08;0.73;;;;;;;22.99;23.89;100916.22;4364620;32;34179;-88
2022/05/18 11:07:59;;;;;;;1.55;0.80;;;;;;;22.50;25.29;100922.63;4354727;32;32218;-88
2022/05/18 11:10:51;;;;;;;1.52;0.82;;;;;;;23.11;25.39;100919.78;4357766;32;33166;-87
2022/05/18 11:13:41;;;;;;;5.55;0.95;;;;;;;23.69;22.13;100920.56;4362209;32;34085;-88
2022/05/18 11:16:34;;;;;;;1.00;0.55;;;;;;;23.47;24.49;100907.94;4369253;32;34620;-87
2022/05/18 11:19:15;;;;;;;2.12;0.52;;;;;;;23.38;21.29;100905.97;4353473;32;34330;-88
2022/05/18 11:21:54;;;;;;;3.65;0.73;;;;;;;23.17;23.68;100913.94;4349843;32;33007;-88
2022/05/18 11:24:46;;;;;;;0.90;0.52;;;;;;;23.50;21.02;100905.84;4361594;32;33930;-87
2022/05/18 11:27:53;;;;;;;2.55;0.60;;;;;;;23.64;20.60;100902.09;4367250;32;34077;-86
2022/05/18 11:30:45;;;;;;;1.27;0.37;;;;;;;23.54;20.66;100902.88;4339074;32;34106;-87
2022/05/18 11:33:19;;;;;;;1.10;0.50;;;;;;;23.37;20.97;100910.50;4356520;32;33782;-86
2022/05/18 11:36:01;;;;;;;2.50;0.52;;;;;;;23.85;17.51;100904.00;4358184;32;34775;-86
2022/05/18 11:38:48;;;;;;;1.15;0.57;;;;;;;23.17;18.40;100912.09;4356630;32;34846;-85
2022/05/18 11:41:38;;;;;;;0.43;0.40;;;;;;;23.05;19.83;100899.56;4365099;32;34255;-87
2022/05/18 11:44:25;;;;;;;1.00;0.60;;;;;;;23.00;19.71;100896.38;4369765;32;34506;-87
2022/05/18 11:47:28;;;;;;;0.62;0.50;;;;;;;23.13;26.56;100901.69;4368040;32;34348;-86
2022/05/18 11:50:42;;;;;;;3.25;0.60;;;;;;;23.27;19.38;100898.75;4365810;32;32458;-86
2022/05/18 11:53:26;;;;;;;9.57;0.90;;;;;;;23.77;18.60;100897.38;4382212;32;33296;-87
2022/05/18 11:55:54;;;;;;;3.87;0.60;;;;;;;23.87;21.76;100894.78;4384441;32;33645;-86
2022/05/18 12:02:10;;;;;;;3.17;0.47;;;;;;;24.23;18.77;100893.59;4385388;32;34188;-86
2022/05/18 12:04:40;;;;;;;2.87;0.70;;;;;;;23.91;17.88;100892.69;4385856;32;32598;-86
2022/05/18 12:07:11;;;;;;;;;;;;;;;24.06;18.08;100895.97;4383351;32;33634;-86
2022/05/18 12:09:46;;;;;;;2.37;0.57;;;;;;;24.01;17.84;100894.50;4378927;32;34268;-86
2022/05/18 12:12:25;;;;;;;1.55;0.68;;;;;;;24.02;19.14;100895.34;4372007;32;34136;-86
2022/05/18 12:15:03;;;;;;;1.73;0.70;;;;;;;24.15;18.53;100890.66;4368194;32;32067;-86
2022/05/18 12:20:25;;;;;;;1.08;0.73;;;;;;;24.11;17.09;100899.13;4383389;32;34793;-86
2022/05/18 12:22:57;;;;;;;1.35;0.60;;;;;;;24.33;18.05;100890.97;4375906;32;33200;-86
2022/05/18 12:25:29;;;;;;;0.32;0.32;;;;;;;23.99;17.36;100892.94;4356974;32;33391;-85
2022/05/18 12:28:00;;;;;;;2.97;0.50;;;;;;;23.21;16.66;100889.28;4359498;32;32272;-85